Time;durP1;ratioP1;P1;durP2;ratioP2;P2;SDS_P1;SDS_P2;PMS_P1;PMS_P2;Temp;Humidity;BMP_temperature;BMP_pressure;BME280_temperature;BME280_humidity;BME280_pressure;Samples;Min_cycle;Max_cycle;Signal;HPM_P1;HPM_P2
2023/10/24 00:01:10;;;;;;;46.70;23.67;;;11.90;99.90;;;;;;5104938;28;20024;-67
2023/10/24 00:03:35;;;;;;;44.63;23.40;;;11.90;99.90;;;;;;5107016;28;20032;-67
2023/10/24 00:06:03;;;;;;;46.72;23.73;;;11.90;99.90;;;;;;5107834;28;20027;-66
2023/10/24 00:08:28;;;;;;;44.92;24.08;;;11.90;99.90;;;;;;5097870;28;20055;-66
2023/10/24 00:11:02;;;;;;;44.03;23.23;;;11.90;99.90;;;;;;5107691;28;20063;-67
2023/10/24 00:13:27;;;;;;;45.50;22.45;;;11.90;99.90;;;;;;5105400;28;20042;-68
2023/10/24 00:15:53;;;;;;;43.63;21.92;;;11.90;99.90;;;;;;5098967;28;20024;-68
2023/10/24 00:18:19;;;;;;;44.50;22.60;;;11.90;99.90;;;;;;5110865;28;20042;-67
2023/10/24 00:20:44;;;;;;;44.03;22.27;;;11.90;99.90;;;;;;5109136;28;20026;-68
2023/10/24 00:23:10;;;;;;;41.25;22.40;;;11.90;99.90;;;;;;5103345;28;20540;-67
2023/10/24 00:25:35;;;;;;;45.10;22.38;;;11.90;99.90;;;;;;5102225;28;20028;-68
2023/10/24 00:28:01;;;;;;;44.08;23.10;;;11.90;99.90;;;;;;5111625;28;20028;-67
2023/10/24 00:30:27;;;;;;;44.33;23.33;;;12.00;99.90;;;;;;5111013;28;20073;-68
2023/10/24 00:32:53;;;;;;;41.28;23.35;;;12.00;99.90;;;;;;5100371;28;20098;-68
2023/10/24 00:35:18;;;;;;;44.72;25.00;;;11.90;99.90;;;;;;5104016;28;20412;-67
2023/10/24 00:37:44;;;;;;;41.95;24.33;;;12.00;99.90;;;;;;5107939;28;20085;-67
2023/10/24 00:40:10;;;;;;;41.97;23.50;;;12.00;99.90;;;;;;5113494;28;20020;-68
2023/10/24 00:42:36;;;;;;;43.30;23.70;;;12.00;99.90;;;;;;5097673;28;20027;-67
2023/10/24 00:45:02;;;;;;;41.67;22.25;;;12.00;99.90;;;;;;5100220;28;20116;-67
2023/10/24 00:47:27;;;;;;;42.22;22.30;;;12.00;99.90;;;;;;5114114;28;20447;-67
2023/10/24 00:49:53;;;;;;;40.50;21.98;;;11.90;99.90;;;;;;5098734;28;20054;-67
2023/10/24 00:52:20;;;;;;;42.95;22.33;;;12.00;99.90;;;;;;5110489;28;20530;-67
2023/10/24 00:54:46;;;;;;;41.78;21.83;;;12.00;99.90;;;;;;5096768;28;20115;-68
2023/10/24 00:57:13;;;;;;;44.97;22.85;;;12.00;99.90;;;;;;5104715;28;20039;-67
2023/10/24 00:59:40;;;;;;;42.05;22.05;;;12.00;99.90;;;;;;5100678;28;20024;-67
2023/10/24 01:02:07;;;;;;;42.17;23.08;;;12.00;99.90;;;;;;5108322;28;20039;-67
2023/10/24 01:04:33;;;;;;;39.65;21.65;;;12.00;99.90;;;;;;5109601;28;20072;-67
2023/10/24 01:06:59;;;;;;;41.70;20.52;;;12.00;99.90;;;;;;5100820;28;20027;-67
2023/10/24 01:09:25;;;;;;;42.38;20.13;;;12.00;99.90;;;;;;5102447;28;20039;-67
2023/10/24 01:11:53;;;;;;;40.28;19.60;;;12.10;99.90;;;;;;5106861;28;20443;-67
2023/10/24 01:14:19;;;;;;;37.55;18.35;;;12.10;99.90;;;;;;5095459;28;20477;-67
2023/10/24 01:16:45;;;;;;;37.22;17.17;;;12.10;99.90;;;;;;5108074;28;20031;-67
2023/10/24 01:19:13;;;;;;;35.40;16.52;;;12.20;99.90;;;;;;5102448;28;20027;-67
2023/10/24 01:21:44;;;;;;;34.38;15.50;;;12.20;99.90;;;;;;5098617;28;20028;-67
2023/10/24 01:24:12;;;;;;;34.45;15.05;;;12.20;99.90;;;;;;5108551;28;20375;-67
2023/10/24 01:26:38;;;;;;;34.08;15.82;;;12.20;99.90;;;;;;5097497;28;20028;-67
2023/10/24 01:29:03;;;;;;;28.02;14.20;;;12.20;99.90;;;;;;5105202;28;20047;-66
2023/10/24 01:31:29;;;;;;;32.08;13.63;;;12.20;99.90;;;;;;5099996;28;20032;-66
2023/10/24 01:33:54;;;;;;;28.38;12.85;;;12.20;99.90;;;;;;5093214;28;20031;-66
2023/10/24 01:36:20;;;;;;;27.05;12.32;;;12.20;99.90;;;;;;5109673;28;20015;-66
2023/10/24 01:38:46;;;;;;;26.08;12.57;;;12.20;99.90;;;;;;5098741;28;20447;-66
2023/10/24 01:41:11;;;;;;;28.25;13.20;;;12.30;99.90;;;;;;5103752;28;20025;-66
2023/10/24 01:43:37;;;;;;;27.63;12.45;;;12.30;99.90;;;;;;5099460;28;20043;-66
2023/10/24 01:46:02;;;;;;;28.77;13.30;;;12.30;99.90;;;;;;5102271;28;20175;-66
2023/10/24 01:48:28;;;;;;;26.88;14.02;;;12.30;99.90;;;;;;5110103;28;20043;-66
2023/10/24 01:50:53;;;;;;;25.92;12.48;;;12.30;99.90;;;;;;5099728;28;20081;-66
2023/10/24 01:53:19;;;;;;;27.25;14.45;;;12.30;99.90;;;;;;5102389;28;20052;-66
2023/10/24 01:55:44;;;;;;;28.10;14.30;;;12.30;99.90;;;;;;5106613;28;20345;-66
2023/10/24 01:58:10;;;;;;;28.77;15.52;;;12.30;99.90;;;;;;5095993;28;20407;-66
2023/10/24 02:00:35;;;;;;;34.03;17.02;;;12.30;99.90;;;;;;5108975;28;20051;-66
2023/10/24 02:03:01;;;;;;;30.25;16.38;;;12.30;99.90;;;;;;5100250;28;20073;-67
2023/10/24 02:05:27;;;;;;;33.80;17.85;;;12.30;99.90;;;;;;5099076;28;20039;-66
2023/10/24 02:07:52;;;;;;;32.88;17.83;;;12.40;99.90;;;;;;5084769;28;20055;-67
2023/10/24 02:10:18;;;;;;;32.53;18.40;;;12.40;99.90;;;;;;5084754;28;20024;-67
2023/10/24 02:12:45;;;;;;;33.38;18.02;;;12.40;99.90;;;;;;5084782;28;20044;-67
2023/10/24 02:15:11;;;;;;;33.20;18.75;;;12.40;99.90;;;;;;5084240;28;20028;-68
2023/10/24 02:17:36;;;;;;;34.80;19.15;;;12.40;99.90;;;;;;5082320;28;20029;-68
2023/10/24 02:20:05;;;;;;;37.22;19.75;;;12.50;99.90;;;;;;5084413;28;20012;-67
2023/10/24 02:22:32;;;;;;;36.38;20.33;;;12.40;99.90;;;;;;5087319;28;20110;-67
2023/10/24 02:24:57;;;;;;;36.50;20.63;;;12.50;99.90;;;;;;5083192;28;20024;-66
2023/10/24 02:27:23;;;;;;;39.13;21.40;;;12.40;99.90;;;;;;5097750;28;20038;-66
2023/10/24 02:29:48;;;;;;;39.65;21.65;;;12.40;99.90;;;;;;5102408;28;20505;-66
2023/10/24 02:32:14;;;;;;;41.10;23.85;;;12.40;99.90;;;;;;5112870;28;20506;-66
2023/10/24 02:34:39;;;;;;;43.58;23.85;;;12.40;99.90;;;;;;5095811;28;20059;-66
2023/10/24 02:37:05;;;;;;;46.70;24.75;;;12.40;99.90;;;;;;5094703;28;20027;-66
2023/10/24 02:39:31;;;;;;;48.80;26.48;;;12.40;99.90;;;;;;5095478;28;20361;-66
2023/10/24 02:41:57;;;;;;;48.83;26.30;;;12.40;99.90;;;;;;5095968;28;20460;-66
2023/10/24 02:44:22;;;;;;;47.58;26.33;;;12.40;99.90;;;;;;5088923;28;20021;-66
2023/10/24 02:46:48;;;;;;;48.88;27.70;;;12.40;99.90;;;;;;5084335;28;20556;-66
2023/10/24 02:49:14;;;;;;;48.15;27.15;;;12.40;99.90;;;;;;5088045;28;20437;-66
2023/10/24 02:51:40;;;;;;;52.10;28.00;;;12.30;99.90;;;;;;5085996;28;20044;-66
2023/10/24 02:54:06;;;;;;;52.30;27.83;;;12.40;99.90;;;;;;5086417;28;20377;-66
2023/10/24 02:56:31;;;;;;;51.28;28.15;;;12.40;99.90;;;;;;5085878;28;20030;-66
2023/10/24 02:58:57;;;;;;;54.30;28.60;;;12.40;99.90;;;;;;5085630;28;20096;-66
2023/10/24 03:01:23;;;;;;;55.65;29.98;;;12.40;99.90;;;;;;5086204;28;20070;-66
2023/10/24 03:03:48;;;;;;;54.45;28.27;;;12.40;99.90;;;;;;5084449;28;20017;-66
2023/10/24 03:06:15;;;;;;;54.97;28.98;;;12.40;99.90;;;;;;5085270;28;20502;-66
2023/10/24 03:08:41;;;;;;;57.08;29.83;;;12.40;99.90;;;;;;5086440;28;20350;-66
2023/10/24 03:11:07;;;;;;;55.05;29.95;;;12.40;99.90;;;;;;5083606;28;20020;-66
2023/10/24 03:13:32;;;;;;;56.28;29.95;;;12.40;99.90;;;;;;5085760;28;20032;-66
2023/10/24 03:16:03;;;;;;;54.95;30.35;;;12.40;99.90;;;;;;5084948;28;20020;-66
2023/10/24 03:18:30;;;;;;;58.20;30.77;;;12.40;99.90;;;;;;5083901;28;20052;-66
2023/10/24 03:20:56;;;;;;;61.45;31.00;;;12.50;99.90;;;;;;5086482;28;20031;-66
2023/10/24 03:23:22;;;;;;;58.50;29.40;;;12.40;99.90;;;;;;5086299;28;20027;-66
2023/10/24 03:25:47;;;;;;;59.03;32.92;;;12.50;99.90;;;;;;5083788;28;20026;-66
2023/10/24 03:28:14;;;;;;;62.35;33.38;;;12.40;99.90;;;;;;5086111;28;20123;-66
2023/10/24 03:30:40;;;;;;;60.95;32.63;;;12.40;99.90;;;;;;5084294;28;20028;-66
2023/10/24 03:33:05;;;;;;;59.17;34.20;;;12.40;99.90;;;;;;5085542;28;20036;-66
2023/10/24 03:35:35;;;;;;;57.50;32.97;;;12.30;99.90;;;;;;5083753;28;20024;-66
2023/10/24 03:38:03;;;;;;;55.95;32.47;;;12.30;99.90;;;;;;5085826;28;20025;-66
2023/10/24 03:40:29;;;;;;;60.47;31.70;;;12.30;99.90;;;;;;5083878;28;20074;-66
2023/10/24 03:42:55;;;;;;;61.50;34.58;;;12.30;99.90;;;;;;5084878;28;20028;-66
2023/10/24 03:45:21;;;;;;;57.75;32.78;;;12.30;99.90;;;;;;5085256;28;20031;-66
2023/10/24 03:47:48;;;;;;;65.88;34.72;;;12.30;99.90;;;;;;5085310;28;20055;-66
2023/10/24 03:50:15;;;;;;;63.47;34.78;;;12.30;99.90;;;;;;5084708;28;20028;-66
2023/10/24 03:52:42;;;;;;;63.80;33.03;;;12.30;99.90;;;;;;5084725;28;20499;-66
2023/10/24 03:55:11;;;;;;;62.05;33.63;;;12.30;99.90;;;;;;5082493;28;20448;-66
2023/10/24 03:57:37;;;;;;;65.63;35.22;;;12.30;99.90;;;;;;5074815;28;20036;-66
2023/10/24 04:00:08;;;;;;;62.03;35.45;;;12.30;99.90;;;;;;5074880;28;20115;-66
2023/10/24 04:02:33;;;;;;;66.95;34.00;;;12.30;99.90;;;;;;5074756;28;20025;-66
2023/10/24 04:04:59;;;;;;;66.22;33.83;;;12.30;99.90;;;;;;5093771;28;20035;-66
2023/10/24 04:07:24;;;;;;;63.90;33.80;;;12.30;99.90;;;;;;5094677;28;20035;-66
2023/10/24 04:09:50;;;;;;;67.22;33.90;;;12.20;99.90;;;;;;5095084;28;20016;-66
2023/10/24 04:12:15;;;;;;;63.58;31.08;;;12.20;99.90;;;;;;5094473;28;20365;-66
2023/10/24 04:14:41;;;;;;;69.90;35.15;;;12.20;99.90;;;;;;5094693;28;20125;-65
2023/10/24 04:17:07;;;;;;;64.03;34.05;;;12.20;99.90;;;;;;5094740;28;20040;-65
2023/10/24 04:19:32;;;;;;;67.00;35.47;;;12.30;99.90;;;;;;5094363;28;20057;-65
2023/10/24 04:21:58;;;;;;;64.45;33.95;;;12.30;99.90;;;;;;5094368;28;20392;-65
2023/10/24 04:24:23;;;;;;;66.30;35.00;;;12.30;99.90;;;;;;5094637;28;20403;-65
2023/10/24 04:26:49;;;;;;;64.93;34.75;;;12.30;99.90;;;;;;5095312;28;20032;-65
2023/10/24 04:29:15;;;;;;;71.50;36.40;;;12.30;99.90;;;;;;5094552;28;20404;-65
2023/10/24 04:31:41;;;;;;;69.35;36.45;;;12.30;99.90;;;;;;5093392;28;20032;-65
2023/10/24 04:34:06;;;;;;;76.15;37.83;;;12.30;99.90;;;;;;5094522;28;20038;-65
2023/10/24 04:36:32;;;;;;;72.97;37.53;;;12.30;99.90;;;;;;5094284;28;20460;-65
2023/10/24 04:38:57;;;;;;;73.50;38.00;;;12.20;99.90;;;;;;5094426;28;20016;-65
2023/10/24 04:41:23;;;;;;;72.60;36.78;;;12.30;99.90;;;;;;5094328;28;20036;-65
2023/10/24 04:43:48;;;;;;;73.95;37.97;;;12.30;99.90;;;;;;5094226;28;20035;-65
2023/10/24 04:46:14;;;;;;;76.18;39.47;;;12.30;99.90;;;;;;5094354;28;20085;-65
2023/10/24 04:48:39;;;;;;;72.45;39.10;;;12.20;99.90;;;;;;5093715;28;20073;-65
2023/10/24 04:51:11;;;;;;;71.65;38.15;;;12.30;99.90;;;;;;5093994;28;20069;-65
2023/10/24 04:53:37;;;;;;;;;;;12.30;99.90;;;;;;5094255;28;20047;-65
2023/10/24 04:56:03;;;;;;;79.00;40.55;;;12.20;99.90;;;;;;5093896;28;20277;-65
2023/10/24 04:58:29;;;;;;;66.72;36.42;;;12.20;99.90;;;;;;5094179;28;20372;-65
2023/10/24 05:00:55;;;;;;;70.20;38.70;;;12.20;99.90;;;;;;5093721;28;20392;-65
2023/10/24 05:03:20;;;;;;;73.63;38.75;;;12.10;99.90;;;;;;5093912;28;20026;-65
2023/10/24 05:05:46;;;;;;;69.28;38.17;;;12.20;99.90;;;;;;5093800;28;20507;-66
2023/10/24 05:08:12;;;;;;;71.80;38.83;;;12.20;99.90;;;;;;5093527;28;20043;-66
2023/10/24 05:10:38;;;;;;;67.68;36.67;;;12.10;99.90;;;;;;5093948;28;20024;-66
2023/10/24 05:13:04;;;;;;;65.97;36.85;;;12.10;99.90;;;;;;5093510;28;20131;-66
2023/10/24 05:15:30;;;;;;;67.13;37.55;;;12.10;99.90;;;;;;5093810;28;20526;-66
2023/10/24 05:17:55;;;;;;;62.38;35.72;;;12.20;99.90;;;;;;5093736;28;20020;-66
2023/10/24 05:20:21;;;;;;;66.88;36.38;;;12.10;99.90;;;;;;5093718;28;20055;-65
2023/10/24 05:22:46;;;;;;;64.53;35.30;;;12.10;99.90;;;;;;5093741;28;20089;-65
2023/10/24 05:25:12;;;;;;;66.43;36.75;;;12.10;99.90;;;;;;5093696;28;20069;-66
2023/10/24 05:27:38;;;;;;;64.72;36.22;;;12.10;99.90;;;;;;5093286;28;20024;-65
2023/10/24 05:30:04;;;;;;;63.97;36.20;;;12.10;99.90;;;;;;5093557;28;20067;-65
2023/10/24 05:32:30;;;;;;;64.38;36.05;;;12.10;99.90;;;;;;5093309;28;20035;-66
2023/10/24 05:34:55;;;;;;;59.65;34.35;;;12.10;99.90;;;;;;5093809;28;20024;-66
2023/10/24 05:37:21;;;;;;;62.70;36.35;;;12.10;99.90;;;;;;5093301;28;20085;-65
2023/10/24 05:39:46;;;;;;;64.05;36.13;;;12.10;99.90;;;;;;5093917;28;20073;-66
2023/10/24 05:42:12;;;;;;;61.63;36.40;;;12.10;99.90;;;;;;5093342;28;20112;-66
2023/10/24 05:44:38;;;;;;;60.75;35.28;;;12.10;99.90;;;;;;5093597;28;20460;-65
2023/10/24 05:47:03;;;;;;;60.17;35.95;;;12.10;99.90;;;;;;5093153;28;20036;-66
2023/10/24 05:49:29;;;;;;;64.10;36.22;;;12.10;99.90;;;;;;5093427;28;20039;-66
2023/10/24 05:51:55;;;;;;;58.67;35.95;;;12.10;99.90;;;;;;5093101;28;20056;-66
2023/10/24 05:54:20;;;;;;;62.35;36.28;;;12.10;99.90;;;;;;5093492;28;20460;-65
2023/10/24 05:56:46;;;;;;;60.35;36.45;;;12.10;99.90;;;;;;5093370;28;20368;-65
2023/10/24 05:59:11;;;;;;;62.58;37.47;;;12.10;99.90;;;;;;5092933;28;20025;-66
2023/10/24 06:01:37;;;;;;;62.92;39.33;;;12.10;99.90;;;;;;5097628;28;20035;-66
2023/10/24 06:04:02;;;;;;;63.20;37.65;;;12.10;99.90;;;;;;5097690;28;20175;-65
2023/10/24 06:06:28;;;;;;;66.45;38.22;;;12.10;99.90;;;;;;5097132;28;20023;-66
2023/10/24 06:08:54;;;;;;;63.90;37.53;;;12.10;99.90;;;;;;5097524;28;20483;-66
2023/10/24 06:11:19;;;;;;;66.80;38.17;;;12.10;99.90;;;;;;5097250;28;20028;-66
2023/10/24 06:13:45;;;;;;;65.15;39.83;;;12.10;99.90;;;;;;5097399;28;20030;-65
2023/10/24 06:16:12;;;;;;;68.13;40.03;;;12.00;99.90;;;;;;5096189;28;20038;-66
2023/10/24 06:18:38;;;;;;;72.95;41.63;;;12.00;99.90;;;;;;5095967;28;20402;-66
2023/10/24 06:21:04;;;;;;;76.38;40.30;;;12.10;99.90;;;;;;5097353;28;20058;-66
2023/10/24 06:23:31;;;;;;;75.50;41.72;;;12.00;99.90;;;;;;5088206;28;20077;-66
2023/10/24 06:25:56;;;;;;;75.38;41.63;;;12.00;99.90;;;;;;5076573;28;20431;-66
2023/10/24 06:28:22;;;;;;;75.50;41.33;;;12.00;99.90;;;;;;5080144;28;20032;-66
2023/10/24 06:30:49;;;;;;;78.38;40.78;;;12.00;99.90;;;;;;5096482;28;20380;-66
2023/10/24 06:33:15;;;;;;;75.45;39.30;;;12.00;99.90;;;;;;5096914;28;20035;-66
2023/10/24 06:35:40;;;;;;;74.57;39.97;;;12.00;99.90;;;;;;5095415;28;20032;-66
2023/10/24 06:38:06;;;;;;;77.10;43.67;;;12.00;99.90;;;;;;5095894;28;20020;-67
2023/10/24 06:40:31;;;;;;;72.22;39.97;;;12.00;99.90;;;;;;5096142;28;20055;-67
2023/10/24 06:42:58;;;;;;;75.15;40.63;;;12.00;99.90;;;;;;5096201;28;20107;-67
2023/10/24 06:45:24;;;;;;;77.43;42.72;;;12.00;99.90;;;;;;5088779;28;20059;-67
2023/10/24 06:47:51;;;;;;;73.60;41.38;;;11.90;99.90;;;;;;5086528;28;20226;-67
2023/10/24 06:50:16;;;;;;;77.57;43.30;;;12.00;99.90;;;;;;5095677;28;20047;-66
2023/10/24 06:52:42;;;;;;;74.63;42.60;;;11.90;99.90;;;;;;5094998;28;20810;-65
2023/10/24 06:55:08;;;;;;;73.40;39.88;;;12.00;99.90;;;;;;5094434;28;20028;-65
2023/10/24 06:57:34;;;;;;;69.72;37.78;;;12.00;99.90;;;;;;5094665;28;20028;-66
2023/10/24 06:59:59;;;;;;;67.28;39.83;;;11.90;99.90;;;;;;5094711;28;20031;-65
2023/10/24 07:02:25;;;;;;;71.30;40.22;;;12.00;99.90;;;;;;5094405;28;20032;-65
2023/10/24 07:04:51;;;;;;;71.22;41.72;;;12.00;99.90;;;;;;5095252;28;20024;-65
2023/10/24 07:07:17;;;;;;;65.65;37.67;;;12.00;99.90;;;;;;5094685;28;20028;-66
2023/10/24 07:09:42;;;;;;;67.03;41.25;;;12.00;99.90;;;;;;5094894;28;20426;-65
2023/10/24 07:12:08;;;;;;;64.82;38.63;;;12.00;99.90;;;;;;5095578;28;20039;-65
2023/10/24 07:14:33;;;;;;;64.00;38.65;;;12.00;99.90;;;;;;5094732;28;20023;-65
2023/10/24 07:16:59;;;;;;;66.15;40.65;;;12.00;99.90;;;;;;5084806;28;20411;-65
2023/10/24 07:19:24;;;;;;;67.30;38.13;;;12.00;99.90;;;;;;5074800;28;20106;-66
2023/10/24 07:21:50;;;;;;;61.10;37.92;;;12.10;99.90;;;;;;5079338;28;20388;-67
2023/10/24 07:24:15;;;;;;;67.50;39.30;;;12.10;99.90;;;;;;5093628;28;20412;-66
2023/10/24 07:26:41;;;;;;;61.58;37.50;;;12.10;99.90;;;;;;5094245;28;20035;-67
2023/10/24 07:29:06;;;;;;;57.50;35.47;;;12.10;99.90;;;;;;5092890;28;20032;-65
2023/10/24 07:31:32;;;;;;;59.47;36.03;;;12.10;99.90;;;;;;5092868;28;20486;-65
2023/10/24 07:33:59;;;;;;;56.40;36.90;;;12.10;99.90;;;;;;5092207;28;20020;-65
2023/10/24 07:36:30;;;;;;;68.80;38.47;;;12.20;99.90;;;;;;5093833;28;20038;-65
2023/10/24 07:38:56;;;;;;;59.53;37.10;;;12.20;99.90;;;;;;5093968;28;20024;-65
2023/10/24 07:41:22;;;;;;;58.80;37.13;;;12.20;99.90;;;;;;5093821;28;20028;-65
2023/10/24 07:43:47;;;;;;;60.17;38.75;;;12.20;99.90;;;;;;5093482;28;20456;-65
2023/10/24 07:46:13;;;;;;;58.70;36.47;;;12.20;99.90;;;;;;5094343;28;20032;-65
2023/10/24 07:48:38;;;;;;;52.90;33.25;;;12.20;99.90;;;;;;5094581;28;20375;-65
2023/10/24 07:51:04;;;;;;;52.30;33.38;;;12.30;99.90;;;;;;5094201;28;20432;-65
2023/10/24 07:53:29;;;;;;;51.22;34.28;;;12.30;99.90;;;;;;5057589;28;1064019;-65
2023/10/24 07:55:55;;;;;;;50.65;33.55;;;12.30;99.90;;;;;;5095302;28;20028;-65
2023/10/24 07:58:20;;;;;;;50.42;33.13;;;12.40;99.90;;;;;;5094754;28;20456;-65
2023/10/24 08:00:47;;;;;;;51.42;33.47;;;12.40;99.90;;;;;;5094741;28;20020;-65
2023/10/24 08:03:13;;;;;;;46.05;30.08;;;12.50;99.90;;;;;;5095065;28;20028;-65
2023/10/24 08:05:39;;;;;;;47.17;31.85;;;12.50;99.90;;;;;;5094815;28;20020;-65
2023/10/24 08:08:05;;;;;;;44.92;30.20;;;12.50;99.90;;;;;;5094970;28;20032;-65
2023/10/24 08:10:32;;;;;;;41.70;30.02;;;12.50;99.90;;;;;;5094723;28;20617;-65
2023/10/24 08:12:59;;;;;;;47.40;31.42;;;12.50;99.90;;;;;;5094818;28;20039;-65
2023/10/24 08:15:24;;;;;;;43.63;29.95;;;12.50;99.90;;;;;;5094972;28;20031;-65
2023/10/24 08:17:51;;;;;;;43.80;29.20;;;12.50;99.90;;;;;;5094641;28;20024;-65
2023/10/24 08:20:17;;;;;;;45.50;31.65;;;12.40;99.90;;;;;;5094954;28;20028;-65
2023/10/24 08:22:43;;;;;;;43.38;30.30;;;12.50;99.90;;;;;;5093809;28;20074;-65
2023/10/24 08:25:08;;;;;;;44.30;30.73;;;12.50;99.90;;;;;;5094709;28;20024;-65
2023/10/24 08:27:34;;;;;;;42.70;29.33;;;12.50;99.90;;;;;;5094351;28;20085;-65
2023/10/24 08:30:00;;;;;;;46.53;31.45;;;12.50;99.90;;;;;;5094253;28;20472;-65
2023/10/24 08:32:25;;;;;;;41.10;28.20;;;12.50;99.90;;;;;;5094627;28;20464;-65
2023/10/24 08:34:51;;;;;;;39.45;28.23;;;12.60;99.90;;;;;;5094396;28;20024;-65
2023/10/24 08:37:16;;;;;;;43.10;30.27;;;12.50;99.90;;;;;;5094724;28;20031;-65
2023/10/24 08:39:42;;;;;;;42.42;29.85;;;12.50;99.90;;;;;;5094287;28;20525;-65
2023/10/24 08:42:10;;;;;;;41.60;28.45;;;12.60;99.90;;;;;;5094283;28;20024;-65
2023/10/24 08:44:37;;;;;;;38.33;28.42;;;12.50;99.90;;;;;;5094441;28;20112;-65
2023/10/24 08:47:04;;;;;;;41.72;28.73;;;12.60;99.90;;;;;;5094329;28;20107;-65
2023/10/24 08:49:31;;;;;;;43.15;27.83;;;12.60;99.90;;;;;;5094251;28;20024;-65
2023/10/24 08:51:56;;;;;;;39.75;28.70;;;12.60;99.90;;;;;;5093862;28;20044;-64
2023/10/24 08:54:22;;;;;;;43.28;30.10;;;12.70;99.90;;;;;;5094028;28;20061;-64
2023/10/24 08:56:50;;;;;;;37.33;26.13;;;12.80;99.90;;;;;;5093637;28;20408;-65
2023/10/24 08:59:18;;;;;;;36.88;27.85;;;12.90;99.90;;;;;;5094135;28;20574;-64
2023/10/24 09:01:44;;;;;;;35.22;26.17;;;13.00;99.90;;;;;;5093910;28;20032;-64
2023/10/24 09:04:10;;;;;;;36.35;26.95;;;13.00;99.90;;;;;;5092753;28;20353;-64
2023/10/24 09:06:38;;;;;;;35.75;26.77;;;13.00;99.90;;;;;;5093756;28;20081;-64
2023/10/24 09:09:03;;;;;;;37.83;27.02;;;13.00;99.90;;;;;;5094022;28;20110;-64
2023/10/24 09:11:53;;;;;;;32.45;22.58;;;13.10;99.90;;;;;;5093469;28;20425;-65
2023/10/24 09:14:19;;;;;;;31.23;23.65;;;13.10;99.90;;;;;;5093876;28;20060;-65
2023/10/24 09:16:53;;;;;;;31.75;23.35;;;13.10;99.90;;;;;;5093781;28;20117;-65
2023/10/24 09:19:18;;;;;;;32.10;24.67;;;13.10;99.90;;;;;;5093851;28;20472;-65
2023/10/24 09:21:44;;;;;;;36.30;26.48;;;13.10;99.90;;;;;;5093420;28;20043;-65
2023/10/24 09:24:13;;;;;;;31.58;24.27;;;13.10;99.90;;;;;;5093567;28;20028;-65
2023/10/24 09:26:39;;;;;;;33.72;24.85;;;13.00;99.90;;;;;;5093638;28;20074;-65
2023/10/24 09:29:07;;;;;;;32.80;24.02;;;13.00;99.90;;;;;;5093758;28;20032;-65
2023/10/24 09:31:34;;;;;;;33.08;25.48;;;13.00;99.90;;;;;;5093426;28;20023;-65
2023/10/24 09:33:59;;;;;;;33.45;25.33;;;13.00;99.90;;;;;;5093369;28;20137;-65
2023/10/24 09:36:25;;;;;;;30.83;22.40;;;13.00;99.90;;;;;;5093581;28;20455;-64
2023/10/24 09:38:52;;;;;;;31.13;23.70;;;12.90;99.90;;;;;;5093597;28;20020;-64
2023/10/24 09:41:18;;;;;;;31.40;24.42;;;12.90;99.90;;;;;;5093764;28;20031;-64
2023/10/24 09:43:48;;;;;;;30.90;24.52;;;12.90;99.90;;;;;;5093401;28;20024;-64
2023/10/24 09:46:18;;;;;;;27.60;21.25;;;12.90;99.90;;;;;;5093426;28;20128;-67
2023/10/24 09:48:44;;;;;;;28.20;20.75;;;12.90;99.90;;;;;;5093312;28;20047;-65
2023/10/24 09:51:11;;;;;;;26.48;19.75;;;13.00;99.90;;;;;;5093140;28;20456;-65
2023/10/24 09:53:37;;;;;;;27.73;20.23;;;12.90;99.90;;;;;;5093506;28;20409;-65
2023/10/24 09:56:03;;;;;;;28.48;20.77;;;12.90;99.90;;;;;;5093423;28;20028;-65
2023/10/24 09:58:30;;;;;;;26.92;19.80;;;13.00;99.90;;;;;;5093572;28;20081;-66
2023/10/24 10:00:57;;;;;;;25.95;19.50;;;13.00;99.90;;;;;;5093459;28;20024;-66
2023/10/24 10:03:24;;;;;;;28.95;22.05;;;12.90;99.90;;;;;;5092956;28;20040;-65
2023/10/24 10:05:53;;;;;;;28.42;21.60;;;12.90;99.90;;;;;;5093049;28;20438;-65
2023/10/24 10:08:21;;;;;;;29.92;22.13;;;12.90;99.90;;;;;;5093423;28;20024;-65
2023/10/24 10:10:48;;;;;;;31.70;23.33;;;12.90;99.90;;;;;;5093295;28;20032;-66
2023/10/24 10:13:18;;;;;;;27.60;22.05;;;12.80;99.90;;;;;;5093464;28;20040;-67
2023/10/24 10:16:03;;;;;;;28.55;20.75;;;12.70;99.90;;;;;;5098646;28;20032;-67
2023/10/24 10:18:50;;;;;;;28.02;20.90;;;12.70;99.90;;;;;;5101692;28;20131;-67
2023/10/24 10:21:53;;;;;;;29.60;20.85;;;12.60;99.90;;;;;;5093208;28;20024;-67
2023/10/24 10:24:34;;;;;;;31.17;22.95;;;12.50;99.90;;;;;;5072593;28;20150;-66
2023/10/24 10:26:59;;;;;;;32.33;23.00;;;12.40;99.90;;;;;;5072979;28;20063;-67
2023/10/24 10:29:40;;;;;;;29.75;22.55;;;12.50;99.90;;;;;;5072555;28;20289;-66
2023/10/24 10:32:25;;;;;;;28.92;20.23;;;12.40;99.90;;;;;;5109791;28;20087;-66
2023/10/24 10:34:51;;;;;;;29.95;21.65;;;12.40;99.90;;;;;;5113106;28;20478;-66
2023/10/24 10:37:17;;;;;;;30.42;21.95;;;12.40;99.90;;;;;;5113424;28;20482;-66
2023/10/24 10:40:17;;;;;;;30.30;23.33;;;12.40;99.90;;;;;;5113402;28;20020;-66
2023/10/24 10:42:47;;;;;;;30.15;21.10;;;12.40;99.90;;;;;;5113373;28;20035;-66
2023/10/24 10:45:32;;;;;;;28.80;19.85;;;12.50;99.90;;;;;;5113690;28;20042;-66
2023/10/24 10:47:58;;;;;;;28.67;20.88;;;12.50;99.90;;;;;;5109024;28;20024;-66
2023/10/24 10:50:37;;;;;;;30.70;21.90;;;12.50;99.90;;;;;;5096495;28;20100;-66
2023/10/24 10:53:29;;;;;;;30.20;23.05;;;12.50;99.90;;;;;;5096882;28;20055;-65
2023/10/24 10:56:11;;;;;;;29.05;21.27;;;12.60;99.90;;;;;;5087972;28;20384;-66
2023/10/24 10:58:49;;;;;;;29.58;20.55;;;12.60;99.90;;;;;;5096877;28;20032;-66
2023/10/24 11:01:23;;;;;;;28.80;21.33;;;12.70;99.90;;;;;;5096433;28;20032;-66
2023/10/24 11:03:49;;;;;;;29.67;22.55;;;12.70;99.90;;;;;;5096250;28;20031;-66
2023/10/24 11:06:16;;;;;;;29.25;21.23;;;12.70;99.90;;;;;;5096497;28;20028;-65
2023/10/24 11:09:05;;;;;;;31.02;21.63;;;12.70;99.90;;;;;;5096788;28;20032;-66
2023/10/24 11:11:31;;;;;;;27.27;20.40;;;12.80;99.90;;;;;;5096315;28;20077;-66
2023/10/24 11:14:12;;;;;;;29.90;20.75;;;12.80;99.90;;;;;;5095958;28;20032;-66
2023/10/24 11:16:41;;;;;;;26.15;19.95;;;12.80;99.90;;;;;;5096299;28;20471;-66
2023/10/24 11:19:06;;;;;;;27.75;19.60;;;12.80;99.90;;;;;;5095980;28;20031;-66
2023/10/24 11:21:33;;;;;;;30.88;22.45;;;12.80;99.90;;;;;;5095780;28;20107;-65
2023/10/24 11:23:59;;;;;;;29.80;20.30;;;12.90;99.90;;;;;;5095842;28;20036;-66
2023/10/24 11:26:26;;;;;;;25.92;21.58;;;12.80;99.90;;;;;;5095819;28;20032;-66
2023/10/24 11:28:52;;;;;;;26.70;20.45;;;12.90;99.90;;;;;;5095804;28;20020;-66
2023/10/24 11:31:20;;;;;;;25.70;19.88;;;12.90;99.90;;;;;;5095965;28;20027;-66
2023/10/24 11:33:46;;;;;;;25.30;18.25;;;12.90;99.90;;;;;;5095782;28;20042;-66
2023/10/24 11:36:12;;;;;;;23.38;17.40;;;12.90;99.90;;;;;;5095936;28;20036;-65
2023/10/24 11:38:37;;;;;;;23.98;18.00;;;13.00;99.90;;;;;;5095777;28;20368;-65
2023/10/24 11:41:03;;;;;;;22.55;17.45;;;13.00;99.90;;;;;;5095973;28;20045;-65
2023/10/24 11:43:29;;;;;;;21.92;15.80;;;13.00;99.90;;;;;;5095226;28;20020;-66
2023/10/24 11:45:56;;;;;;;21.42;15.43;;;13.00;99.90;;;;;;5095646;28;20047;-65
2023/10/24 11:48:21;;;;;;;19.33;13.90;;;13.10;99.90;;;;;;5095252;28;20531;-66
2023/10/24 11:50:47;;;;;;;22.35;16.75;;;13.00;99.90;;;;;;5095598;28;20115;-66
2023/10/24 11:53:23;;;;;;;20.35;14.63;;;13.00;99.90;;;;;;5095521;28;20059;-66
2023/10/24 11:55:50;;;;;;;17.25;12.30;;;13.10;99.90;;;;;;5095297;28;20464;-66
2023/10/24 11:58:16;;;;;;;18.55;13.40;;;13.10;99.90;;;;;;5094580;28;20027;-66
2023/10/24 12:00:43;;;;;;;16.88;10.68;;;13.10;99.90;;;;;;5095198;28;20480;-65
2023/10/24 12:03:09;;;;;;;11.93;8.68;;;13.10;99.90;;;;;;5095245;28;20062;-66
2023/10/24 12:05:36;;;;;;;16.52;9.43;;;13.10;99.90;;;;;;5095298;28;20027;-66
2023/10/24 12:08:03;;;;;;;14.95;8.98;;;13.10;99.90;;;;;;5095247;28;20020;-66
2023/10/24 12:10:30;;;;;;;12.50;8.35;;;13.10;99.90;;;;;;5095245;28;20460;-66
2023/10/24 12:13:03;;;;;;;12.48;6.88;;;13.00;99.90;;;;;;5095053;28;20075;-66
2023/10/24 12:15:32;;;;;;;13.73;8.18;;;12.90;99.90;;;;;;5094774;28;20310;-66
2023/10/24 12:18:04;;;;;;;10.75;8.23;;;12.80;99.90;;;;;;5094892;28;20487;-67
2023/10/24 12:20:30;;;;;;;13.38;8.10;;;12.80;99.90;;;;;;5094779;28;20024;-67
2023/10/24 12:22:56;;;;;;;15.68;8.68;;;12.70;99.90;;;;;;5094557;28;20033;-67
2023/10/24 12:25:22;;;;;;;13.73;7.90;;;12.70;99.90;;;;;;5094792;28;20093;-67
2023/10/24 12:27:48;;;;;;;12.35;6.70;;;12.70;99.90;;;;;;5094777;28;20036;-67